Time;durP1;ratioP1;P1;durP2;ratioP2;P2;SDS_P1;SDS_P2;PMS_P1;PMS_P2;Temp;Humidity;BMP_temperature;BMP_pressure;BME280_temperature;BME280_humidity;BME280_pressure;Samples;Min_cycle;Max_cycle;Signal;HPM_P1;HPM_P2
2022/09/22 00:01:13;;;;;;;;;;;12.60;76.30;;;;;;5002063;28;19934;-79
2022/09/22 00:03:41;;;;;;;;;;;12.60;76.40;;;;;;5006207;28;19984;-78
2022/09/22 00:06:09;;;;;;;;;;;12.50;76.20;;;;;;5003169;28;19964;-79
2022/09/22 00:08:36;;;;;;;;;;;12.50;76.40;;;;;;5005683;28;19990;-78
2022/09/22 00:11:04;;;;;;;;;;;12.50;76.40;;;;;;5004906;28;20286;-78
2022/09/22 00:13:31;;;;;;;;;;;12.50;76.50;;;;;;5005357;28;19933;-79
2022/09/22 00:15:59;;;;;;;;;;;12.40;76.50;;;;;;5007831;28;20424;-79
2022/09/22 00:18:27;;;;;;;;;;;12.40;76.50;;;;;;5008481;28;19930;-78
2022/09/22 00:20:53;;;;;;;;;;;12.30;76.60;;;;;;5006376;28;19936;-79
2022/09/22 00:23:20;;;;;;;;;;;12.30;76.60;;;;;;5007720;28;19929;-79
2022/09/22 00:25:47;;;;;;;;;;;12.30;76.60;;;;;;5002021;28;19929;-80
2022/09/22 00:28:13;;;;;;;;;;;12.30;76.60;;;;;;5005033;28;20465;-78
2022/09/22 00:30:41;;;;;;;;;;;12.30;76.60;;;;;;5008079;28;19933;-82
2022/09/22 00:33:08;;;;;;;;;;;12.20;76.60;;;;;;5008506;28;19933;-79
2022/09/22 00:35:36;;;;;;;;;;;12.20;76.80;;;;;;5001028;28;19926;-79
2022/09/22 00:38:04;;;;;;;;;;;12.20;76.70;;;;;;5001889;28;19941;-80
2022/09/22 00:40:31;;;;;;;;;;;12.20;76.80;;;;;;5006142;28;19940;-80
2022/09/22 00:43:11;;;;;;;;;;;12.10;76.90;;;;;;5008400;28;19940;-79
2022/09/22 00:45:37;;;;;;;;;;;12.10;76.90;;;;;;5003804;28;20380;-79
2022/09/22 00:48:04;;;;;;;;;;;12.10;76.90;;;;;;5005218;28;19933;-79
2022/09/22 00:50:31;;;;;;;;;;;12.00;77.00;;;;;;5007077;28;19935;-78
2022/09/22 00:53:00;;;;;;;;;;;12.00;77.10;;;;;;5006571;28;19929;-79
2022/09/22 00:55:29;;;;;;;;;;;12.00;77.30;;;;;;5004789;28;19937;-80
2022/09/22 00:57:56;;;;;;;;;;;11.90;77.20;;;;;;5005560;28;20008;-78
2022/09/22 01:00:23;;;;;;;;;;;12.00;77.50;;;;;;5006757;28;19937;-81
2022/09/22 01:02:51;;;;;;;;;;;11.90;77.40;;;;;;5008782;28;19968;-79
2022/09/22 01:05:19;;;;;;;;;;;11.90;77.50;;;;;;5004771;28;19926;-79
2022/09/22 01:07:46;;;;;;;;;;;11.90;77.50;;;;;;5000327;28;19968;-79
2022/09/22 01:10:14;;;;;;;;;;;11.80;77.50;;;;;;5007720;28;20512;-79
2022/09/22 01:12:44;;;;;;;;;;;11.80;77.50;;;;;;5007794;28;20978;-79
2022/09/22 01:15:19;;;;;;;;;;;11.80;77.40;;;;;;5004647;28;19933;-79
2022/09/22 01:17:50;;;;;;;;;;;11.80;77.50;;;;;;5009077;28;19933;-79
2022/09/22 01:20:32;;;;;;;;;;;11.80;77.60;;;;;;5005664;28;19930;-81
2022/09/22 01:23:11;;;;;;;;;;;11.70;77.60;;;;;;5006926;28;19936;-78
2022/09/22 01:25:50;;;;;;;;;;;11.70;77.70;;;;;;5005687;28;19933;-79
2022/09/22 01:28:27;;;;;;;;;;;11.70;77.80;;;;;;5007090;28;19929;-79
2022/09/22 01:30:57;;;;;;;;;;;11.60;77.80;;;;;;5010398;28;19999;-78
2022/09/22 01:33:32;;;;;;;;;;;11.60;77.90;;;;;;5003444;28;19934;-81
2022/09/22 01:36:03;;;;;;;;;;;11.60;78.00;;;;;;4996682;28;19929;-78
2022/09/22 01:38:33;;;;;;;;;;;11.60;78.00;;;;;;5000531;28;19936;-79
2022/09/22 01:41:02;;;;;;;;;;;11.50;77.90;;;;;;5003940;28;20390;-79
2022/09/22 01:43:33;;;;;;;;;;;11.50;78.00;;;;;;5016469;28;20412;-79
2022/09/22 01:46:02;;;;;;;;;;;11.50;78.00;;;;;;5005852;28;19975;-79
2022/09/22 01:48:31;;;;;;;;;;;11.50;78.10;;;;;;5005026;28;19933;-79
2022/09/22 01:51:03;;;;;;;;;;;11.40;78.00;;;;;;5001758;28;19933;-80
2022/09/22 01:53:30;;;;;;;;;;;11.40;78.20;;;;;;5005322;28;20020;-78
2022/09/22 01:56:01;;;;;;;;;;;11.40;78.20;;;;;;5001021;28;19933;-79
2022/09/22 01:58:30;;;;;;;;;;;11.40;78.30;;;;;;5005034;28;19956;-79
2022/09/22 02:00:58;;;;;;;;;;;11.30;78.30;;;;;;4998612;28;20463;-79
2022/09/22 02:03:29;;;;;;;;;;;11.30;78.40;;;;;;5002484;28;19925;-78
2022/09/22 02:05:57;;;;;;;;;;;11.30;78.30;;;;;;4996643;28;19933;-78
2022/09/22 02:08:30;;;;;;;;;;;11.20;78.30;;;;;;5004316;28;19929;-80
2022/09/22 02:10:57;;;;;;;;;;;11.20;78.30;;;;;;5003517;28;19933;-78
2022/09/22 02:13:24;;;;;;;;;;;11.20;78.40;;;;;;5008527;28;19953;-77
2022/09/22 02:15:59;;;;;;;;;;;11.20;78.50;;;;;;4998607;28;19983;-79
2022/09/22 02:18:30;;;;;;;;;;;11.20;78.50;;;;;;5004375;28;19934;-77
2022/09/22 02:20:57;;;;;;;;;;;11.20;78.60;;;;;;5005018;28;19929;-79
2022/09/22 02:23:24;;;;;;;;;;;11.10;78.60;;;;;;5002821;28;19929;-78
2022/09/22 02:25:51;;;;;;;;;;;11.10;78.70;;;;;;5000877;28;19985;-79
2022/09/22 02:28:20;;;;;;;;;;;11.10;78.60;;;;;;5000311;28;19941;-79
2022/09/22 02:30:49;;;;;;;;;;;11.10;78.80;;;;;;5009755;28;19929;-79
2022/09/22 02:33:16;;;;;;;;;;;11.00;78.70;;;;;;5009456;28;20747;-79
2022/09/22 02:35:46;;;;;;;;;;;11.00;78.60;;;;;;4999550;28;19934;-79
2022/09/22 02:38:15;;;;;;;;;;;11.00;78.60;;;;;;5000218;28;20480;-80
2022/09/22 02:40:45;;;;;;;;;;;11.00;78.70;;;;;;4998908;28;20599;-78
2022/09/22 02:43:14;;;;;;;;;;;11.00;78.80;;;;;;5006684;28;20020;-79
2022/09/22 02:45:44;;;;;;;;;;;10.90;78.70;;;;;;5005082;28;19992;-78
2022/09/22 02:48:13;;;;;;;;;;;10.90;78.70;;;;;;4998233;28;20411;-79
2022/09/22 02:50:42;;;;;;;;;;;10.90;78.80;;;;;;4997919;28;19976;-78
2022/09/22 02:53:12;;;;;;;;;;;10.90;78.80;;;;;;4996490;28;20032;-79
2022/09/22 02:55:39;;;;;;;;;;;10.90;79.00;;;;;;5001976;28;19933;-79
2022/09/22 02:58:05;;;;;;;;;;;10.80;79.10;;;;;;5002769;28;19969;-79
2022/09/22 03:00:32;;;;;;;;;;;10.80;79.10;;;;;;5002727;28;19929;-78
2022/09/22 03:02:58;;;;;;;;;;;10.80;78.90;;;;;;5001059;28;19930;-79
2022/09/22 03:05:25;;;;;;;;;;;10.80;79.10;;;;;;5002654;28;19975;-79
2022/09/22 03:07:52;;;;;;;;;;;10.70;79.00;;;;;;5002670;28;19976;-79
2022/09/22 03:10:19;;;;;;;;;;;10.70;79.00;;;;;;5001588;28;19988;-78
2022/09/22 03:12:46;;;;;;;;;;;10.70;79.10;;;;;;5002162;28;20528;-79
2022/09/22 03:15:14;;;;;;;;;;;10.60;79.10;;;;;;5001008;28;19933;-77
2022/09/22 03:17:40;;;;;;;;;;;10.70;79.20;;;;;;5003149;28;20000;-78
2022/09/22 03:20:10;;;;;;;;;;;10.60;79.20;;;;;;5003170;28;19934;-78
2022/09/22 03:22:37;;;;;;;;;;;10.60;79.20;;;;;;5004695;28;19929;-78
2022/09/22 03:25:03;;;;;;;;;;;10.50;77.90;;;;;;5003329;28;19933;-77
2022/09/22 03:27:31;;;;;;;;;;;10.40;78.70;;;;;;4997110;28;19944;-77
2022/09/22 03:29:58;;;;;;;;;;;10.30;79.50;;;;;;5004213;28;19933;-79
2022/09/22 03:32:24;;;;;;;;;;;10.30;80.00;;;;;;5000427;28;19937;-78
2022/09/22 03:34:51;;;;;;;;;;;10.30;80.30;;;;;;4998787;28;20321;-77
2022/09/22 03:37:18;;;;;;;;;;;10.30;80.30;;;;;;5006271;28;20297;-78
2022/09/22 03:39:44;;;;;;;;;;;10.30;80.40;;;;;;5006720;28;19940;-77
2022/09/22 03:42:11;;;;;;;;;;;10.20;80.40;;;;;;5002066;28;19925;-78
2022/09/22 03:44:38;;;;;;;;;;;10.20;80.40;;;;;;5007042;28;19963;-78
2022/09/22 03:47:05;;;;;;;;;;;10.20;80.50;;;;;;5004156;28;19936;-78
2022/09/22 03:49:32;;;;;;;;;;;10.20;80.50;;;;;;5008368;28;20381;-77
2022/09/22 03:51:58;;;;;;;;;;;10.20;80.40;;;;;;5003596;28;19938;-78
2022/09/22 03:54:25;;;;;;;;;;;10.20;80.50;;;;;;4999788;28;19929;-76
2022/09/22 03:56:51;;;;;;;;;;;10.20;80.60;;;;;;4998807;28;19940;-79
2022/09/22 03:59:18;;;;;;;;;;;10.10;80.50;;;;;;5013977;28;19933;-77
2022/09/22 04:01:46;;;;;;;;;;;10.10;80.50;;;;;;5006611;28;19936;-77
2022/09/22 04:04:12;;;;;;;;;;;10.10;80.60;;;;;;5000532;28;19937;-77
2022/09/22 04:06:39;;;;;;;;;;;10.10;80.60;;;;;;5000957;28;19933;-78
2022/09/22 04:09:06;;;;;;;;;;;10.10;80.60;;;;;;5003737;28;19976;-78
2022/09/22 04:11:32;;;;;;;;;;;10.10;80.60;;;;;;5002066;28;20432;-77
2022/09/22 04:14:00;;;;;;;;;;;10.10;80.80;;;;;;5005064;28;19929;-77
2022/09/22 04:16:27;;;;;;;;;;;10.10;80.90;;;;;;5003433;28;19929;-77
2022/09/22 04:18:55;;;;;;;;;;;10.00;80.80;;;;;;5004490;28;19930;-76
2022/09/22 04:21:22;;;;;;;;;;;10.00;80.90;;;;;;5005074;28;19937;-75
2022/09/22 04:23:49;;;;;;;;;;;10.00;80.90;;;;;;5002272;28;19934;-77
2022/09/22 04:26:15;;;;;;;;;;;10.00;80.90;;;;;;5008295;28;19999;-76
2022/09/22 04:28:42;;;;;;;;;;;9.90;80.90;;;;;;5002037;28;19934;-78
2022/09/22 04:31:08;;;;;;;;;;;9.90;80.90;;;;;;5011749;28;19940;-77
2022/09/22 04:33:35;;;;;;;;;;;9.90;81.10;;;;;;5010820;28;20017;-77
2022/09/22 04:36:03;;;;;;;;;;;9.90;81.90;;;;;;4999570;28;20058;-77
2022/09/22 04:38:30;;;;;;;;;;;9.90;81.20;;;;;;5008348;28;20050;-77
2022/09/22 04:40:57;;;;;;;;;;;9.80;81.20;;;;;;5004740;28;20380;-78
2022/09/22 04:43:23;;;;;;;;;;;9.90;81.30;;;;;;5008966;28;20016;-77
2022/09/22 04:45:50;;;;;;;;;;;9.80;81.20;;;;;;5006569;28;20452;-77
2022/09/22 04:48:16;;;;;;;;;;;9.80;81.20;;;;;;5005640;28;19928;-77
2022/09/22 04:50:43;;;;;;;;;;;9.80;81.30;;;;;;4998448;28;19936;-77
2022/09/22 04:53:11;;;;;;;;;;;9.70;81.30;;;;;;5003694;28;19929;-79
2022/09/22 04:55:38;;;;;;;;;;;9.70;81.30;;;;;;5004754;28;20647;-77
2022/09/22 04:58:06;;;;;;;;;;;9.70;81.30;;;;;;5004590;28;20016;-75
2022/09/22 05:00:33;;;;;;;;;;;9.70;81.40;;;;;;5001188;28;19929;-77
2022/09/22 05:03:00;;;;;;;;;;;9.70;81.40;;;;;;5001786;28;20566;-77
2022/09/22 05:05:27;;;;;;;;;;;9.70;81.60;;;;;;5006262;28;20390;-77
2022/09/22 05:07:53;;;;;;;;;;;9.70;81.50;;;;;;5005265;28;19933;-76
2022/09/22 05:10:23;;;;;;;;;;;9.60;81.60;;;;;;5001893;28;19937;-78
2022/09/22 05:12:51;;;;;;;;;;;9.60;81.50;;;;;;5000464;28;20047;-78
2022/09/22 05:15:17;;;;;;;;;;;9.60;81.60;;;;;;5004507;28;19936;-77
2022/09/22 05:17:47;;;;;;;;;;;9.60;81.70;;;;;;5002669;28;19930;-77
2022/09/22 05:20:14;;;;;;;;;;;9.60;81.70;;;;;;5005171;28;20348;-77
2022/09/22 05:22:41;;;;;;;;;;;9.60;81.80;;;;;;5000277;28;19930;-78
2022/09/22 05:25:09;;;;;;;;;;;9.50;81.70;;;;;;5005658;28;19936;-77
2022/09/22 05:27:37;;;;;;;;;;;9.50;81.80;;;;;;4996259;28;20027;-77
2022/09/22 05:30:04;;;;;;;;;;;9.50;81.90;;;;;;5001466;28;20551;-77
2022/09/22 05:32:31;;;;;;;;;;;9.50;81.80;;;;;;5001326;28;19938;-71
2022/09/22 05:34:57;;;;;;;;;;;9.50;81.90;;;;;;5003843;28;19933;-71
2022/09/22 05:37:24;;;;;;;;;;;9.50;82.00;;;;;;4992900;28;19952;-69
2022/09/22 05:39:50;;;;;;;;;;;9.50;82.70;;;;;;5005343;28;19929;-70
2022/09/22 05:42:17;;;;;;;;;;;9.40;82.00;;;;;;5003303;28;20669;-69
2022/09/22 05:44:45;;;;;;;;;;;9.40;82.10;;;;;;4998054;28;19964;-68
2022/09/22 05:47:11;;;;;;;;;;;9.40;82.10;;;;;;5003106;28;19992;-68
2022/09/22 05:49:38;;;;;;;;;;;9.40;82.20;;;;;;5001560;28;19929;-68
2022/09/22 05:52:04;;;;;;;;;;;9.40;82.20;;;;;;4998444;28;19930;-69
2022/09/22 05:54:31;;;;;;;;;;;9.30;82.00;;;;;;5001474;28;19991;-66
2022/09/22 05:56:57;;;;;;;;;;;9.40;82.10;;;;;;5002486;28;19937;-68
2022/09/22 05:59:24;;;;;;;;;;;9.30;82.10;;;;;;4998929;28;21198;-67
2022/09/22 06:01:52;;;;;;;;;;;9.30;82.20;;;;;;4995952;28;19976;-71
2022/09/22 06:04:18;;;;;;;;;;;9.30;82.30;;;;;;5001110;28;19929;-68
2022/09/22 06:06:45;;;;;;;;;;;9.30;82.50;;;;;;4995613;28;19940;-68
2022/09/22 06:09:11;;;;;;;;;;;9.30;82.60;;;;;;5001574;28;19925;-69
2022/09/22 06:11:38;;;;;;;;;;;9.30;82.40;;;;;;5000472;28;19933;-68
2022/09/22 06:14:04;;;;;;;;;;;9.30;82.60;;;;;;5002475;28;19960;-71
2022/09/22 06:16:31;;;;;;;;;;;9.30;82.60;;;;;;4997748;28;19929;-68
2022/09/22 06:18:59;;;;;;;;;;;9.20;82.60;;;;;;4999993;28;20289;-68
2022/09/22 06:21:26;;;;;;;;;;;9.20;82.70;;;;;;5000086;28;19925;-67
2022/09/22 06:23:56;;;;;;;;;;;9.20;82.80;;;;;;4998139;28;19929;-66
2022/09/22 06:26:22;;;;;;;;;;;9.20;82.80;;;;;;4999527;28;20051;-66
2022/09/22 06:28:49;;;;;;;;;;;9.20;82.90;;;;;;5001025;28;20555;-68
2022/09/22 06:31:16;;;;;;;;;;;9.20;82.90;;;;;;5001605;28;19929;-68
2022/09/22 06:33:47;;;;;;;;;;;9.20;83.00;;;;;;4999080;28;20004;-68
2022/09/22 06:36:19;;;;;;;;;;;9.20;83.00;;;;;;4996261;28;20138;-67
2022/09/22 06:38:46;;;;;;;;;;;9.20;83.10;;;;;;5000599;28;19930;-66
2022/09/22 06:41:12;;;;;;;;;;;9.20;83.30;;;;;;4995132;28;19930;-71
2022/09/22 06:43:39;;;;;;;;;;;9.20;83.20;;;;;;5001106;28;19983;-68
2022/09/22 06:46:06;;;;;;;;;;;9.20;83.20;;;;;;4998317;28;19954;-68
2022/09/22 06:48:33;;;;;;;;;;;9.20;83.30;;;;;;4998878;28;19926;-70
2022/09/22 06:50:59;;;;;;;;;;;9.20;83.30;;;;;;5004361;28;19936;-69
2022/09/22 06:53:27;;;;;;;;;;;9.10;83.30;;;;;;4999825;28;20020;-68
2022/09/22 06:55:54;;;;;;;;;;;9.10;83.40;;;;;;5000897;28;20497;-67
2022/09/22 06:58:21;;;;;;;;;;;9.10;83.40;;;;;;5001437;28;20399;-69
2022/09/22 07:00:48;;;;;;;;;;;9.10;83.40;;;;;;4996998;28;20016;-68
2022/09/22 07:03:16;;;;;;;;;;;9.10;83.50;;;;;;4996161;28;19933;-66
2022/09/22 07:05:52;;;;;;;;;;;9.10;83.70;;;;;;4997215;28;19929;-67
2022/09/22 07:08:18;;;;;;;;;;;9.10;83.60;;;;;;5001205;28;19930;-68
2022/09/22 07:10:50;;;;;;;;;;;9.10;83.70;;;;;;4999493;28;20011;-68
2022/09/22 07:13:17;;;;;;;;;;;9.10;83.70;;;;;;5000411;28;19944;-69
2022/09/22 07:15:43;;;;;;;;;;;9.10;83.80;;;;;;5002274;28;19933;-67
2022/09/22 07:18:10;;;;;;;;;;;9.10;83.90;;;;;;5003225;28;19934;-68
2022/09/22 07:20:37;;;;;;;;;;;9.10;83.90;;;;;;5006904;28;20278;-68
2022/09/22 07:23:03;;;;;;;;;;;9.10;84.00;;;;;;5004961;28;19937;-68
2022/09/22 07:25:34;;;;;;;;;;;9.10;83.90;;;;;;5004370;28;19941;-67
2022/09/22 07:28:03;;;;;;;;;;;9.10;83.90;;;;;;5007021;28;20274;-69
2022/09/22 07:30:30;;;;;;;;;;;9.10;83.90;;;;;;5005254;28;19965;-69
2022/09/22 07:32:57;;;;;;;;;;;9.10;84.10;;;;;;5003450;28;19948;-67
2022/09/22 07:35:23;;;;;;;;;;;9.10;84.20;;;;;;4997502;28;19929;-68
2022/09/22 07:37:53;;;;;;;;;;;9.10;84.20;;;;;;5003157;28;20507;-69
2022/09/22 07:40:19;;;;;;;;;;;9.10;84.20;;;;;;4998904;28;19961;-69
2022/09/22 07:42:48;;;;;;;;;;;9.10;84.20;;;;;;5003682;28;19930;-69
2022/09/22 07:45:15;;;;;;;;;;;9.10;84.30;;;;;;5003987;28;20369;-68
2022/09/22 07:50:29;;;;;;;;;;;9.10;84.30;;;;;;5000501;28;20309;-67
2022/09/22 07:52:56;;;;;;;;;;;9.10;84.20;;;;;;5002785;28;19941;-68
2022/09/22 07:55:23;;;;;;;;;;;9.10;84.20;;;;;;5000515;28;20670;-68
2022/09/22 07:57:54;;;;;;;;;;;9.20;84.40;;;;;;5003833;28;20487;-68
2022/09/22 08:00:22;;;;;;;;;;;9.20;84.40;;;;;;5000522;28;19973;-69
2022/09/22 08:02:54;;;;;;;;;;;9.20;84.40;;;;;;5002811;28;19933;-69
2022/09/22 08:05:21;;;;;;;;;;;9.20;84.30;;;;;;5000560;28;19937;-70
2022/09/22 08:07:47;;;;;;;;;;;9.20;84.40;;;;;;5001411;28;20067;-68
2022/09/22 08:10:15;;;;;;;;;;;9.30;84.30;;;;;;5002194;28;19983;-69
2022/09/22 08:12:42;;;;;;;;;;;9.30;84.30;;;;;;5002756;28;19925;-69
2022/09/22 08:15:09;;;;;;;;;;;9.30;84.20;;;;;;5001784;28;20305;-68
2022/09/22 08:17:38;;;;;;;;;;;9.40;84.10;;;;;;5000061;28;19929;-68
2022/09/22 08:20:05;;;;;;;;;;;9.40;83.90;;;;;;5003237;28;19930;-69
2022/09/22 08:22:32;;;;;;;;;;;9.40;83.80;;;;;;5001897;28;19937;-67
2022/09/22 08:24:58;;;;;;;;;;;9.50;83.70;;;;;;5004941;28;19929;-69
2022/09/22 08:27:25;;;;;;;;;;;9.60;83.70;;;;;;5001752;28;20345;-68
2022/09/22 08:29:52;;;;;;;;;;;9.60;83.50;;;;;;5003668;28;19929;-68
2022/09/22 08:32:18;;;;;;;;;;;9.70;83.50;;;;;;5002134;28;19936;-69
2022/09/22 08:34:46;;;;;;;;;;;9.70;83.60;;;;;;5004869;28;19936;-72
2022/09/22 08:37:13;;;;;;;;;;;9.80;84.20;;;;;;5003289;28;19952;-69
2022/09/22 08:39:40;;;;;;;;;;;9.80;83.10;;;;;;5005213;28;20609;-72
2022/09/22 08:42:09;;;;;;;;;;;9.90;82.70;;;;;;5006872;28;19929;-70
2022/09/22 08:44:39;;;;;;;;;;;10.00;82.40;;;;;;5007165;28;19929;-71
2022/09/22 08:47:06;;;;;;;;;;;10.00;82.30;;;;;;5010997;28;20008;-71
2022/09/22 08:52:25;;;;;;;;;;;10.20;81.80;;;;;;5000396;28;19936;-71
2022/09/22 08:54:52;;;;;;;;;;;10.30;81.40;;;;;;5005462;28;19945;-71
2022/09/22 08:57:23;;;;;;;;;;;10.30;80.90;;;;;;5001948;28;19984;-70
2022/09/22 08:59:53;;;;;;;;;;;10.40;80.60;;;;;;5006438;28;20735;-70
2022/09/22 09:02:32;;;;;;;;;;;10.50;80.50;;;;;;5000740;28;19937;-71
2022/09/22 09:05:17;;;;;;;;;;;10.50;80.30;;;;;;5003548;28;20012;-71
2022/09/22 09:07:56;;;;;;;;;;;10.60;80.00;;;;;;5003540;28;19952;-71
2022/09/22 09:10:28;;;;;;;;;;;10.70;79.90;;;;;;5006144;28;20010;-68
2022/09/22 09:13:05;;;;;;;;;;;10.80;79.40;;;;;;4999998;28;19929;-70
2022/09/22 09:15:40;;;;;;;;;;;10.80;79.10;;;;;;5005635;28;19933;-70
2022/09/22 09:18:12;;;;;;;;;;;10.90;79.20;;;;;;5005599;28;19935;-71
2022/09/22 09:20:43;;;;;;;;;;;10.90;79.00;;;;;;5006706;28;19929;-71
2022/09/22 09:23:13;;;;;;;;;;;11.00;78.90;;;;;;5010076;28;19929;-70
2022/09/22 09:25:40;;;;;;;;;;;11.10;78.80;;;;;;5002351;28;20715;-71
2022/09/22 09:28:10;;;;;;;;;;;11.20;78.70;;;;;;5004232;28;19930;-71
2022/09/22 09:30:39;;;;;;;;;;;11.20;78.60;;;;;;4997473;28;19930;-71
2022/09/22 09:33:11;;;;;;;;;;;11.30;78.60;;;;;;5003403;28;20454;-69
2022/09/22 09:35:42;;;;;;;;;;;11.40;78.60;;;;;;4999135;28;19984;-70
2022/09/22 09:38:14;;;;;;;;;;;11.40;78.30;;;;;;5002472;28;20079;-71
2022/09/22 09:40:40;;;;;;;;;;;11.50;78.00;;;;;;4997640;28;20061;-70
2022/09/22 09:43:07;;;;;;;;;;;11.50;77.80;;;;;;5004149;28;19932;-69
2022/09/22 09:45:39;;;;;;;;;;;11.60;77.80;;;;;;5000684;28;20447;-70
2022/09/22 09:48:17;;;;;;;;;;;11.70;77.70;;;;;;5003399;28;20345;-71
2022/09/22 09:50:44;;;;;;;;;;;11.70;77.60;;;;;;4998203;28;19930;-69
2022/09/22 09:53:20;;;;;;;;;;;11.80;77.60;;;;;;5002193;28;19929;-70
2022/09/22 09:55:49;;;;;;;;;;;11.90;76.90;;;;;;4999408;28;19981;-71
2022/09/22 10:00:29;;;;;;;;;;;12.00;76.90;;;;;;5004790;28;19930;-70
2022/09/22 10:01:02;;;;;;;;;;;12.10;76.80;;;;;;5004362;28;20527;-70
2022/09/22 10:03:29;;;;;;;;;;;12.10;76.70;;;;;;5002364;28;20665;-67
2022/09/22 10:05:59;;;;;;;;;;;12.20;76.60;;;;;;4998075;28;19933;-70
2022/09/22 10:08:27;;;;;;;;;;;12.30;76.80;;;;;;4998937;28;19936;-71
2022/09/22 10:10:55;;;;;;;;;;;12.30;76.60;;;;;;5002014;28;19933;-71
2022/09/22 10:13:26;;;;;;;;;;;12.50;76.20;;;;;;5005631;28;19940;-70
2022/09/22 10:16:00;;;;;;;;;;;12.50;76.00;;;;;;5004655;28;20413;-70
2022/09/22 10:18:32;;;;;;;;;;;12.60;75.90;;;;;;5006501;28;19933;-70
2022/09/22 10:21:02;;;;;;;;;;;12.60;75.60;;;;;;5004715;28;19936;-70
2022/09/22 10:23:31;;;;;;;;;;;12.70;75.30;;;;;;5002400;28;19992;-70
2022/09/22 10:26:13;;;;;;;;;;;12.80;74.90;;;;;;4995720;28;19930;-70
2022/09/22 10:28:40;;;;;;;;;;;12.80;74.70;;;;;;5000002;28;20015;-69
2022/09/22 10:31:06;;;;;;;;;;;12.90;74.60;;;;;;4996628;28;19974;-69
2022/09/22 10:33:33;;;;;;;;;;;13.00;74.40;;;;;;5008385;28;19929;-70
2022/09/22 10:36:04;;;;;;;;;;;13.00;74.10;;;;;;4996621;28;19929;-71
2022/09/22 10:38:33;;;;;;;;;;;13.10;73.50;;;;;;5001025;28;19929;-70
2022/09/22 10:41:03;;;;;;;;;;;13.20;73.00;;;;;;5002892;28;19929;-71
2022/09/22 10:43:39;;;;;;;;;;;13.20;73.20;;;;;;5005193;28;19929;-71
2022/09/22 10:46:17;;;;;;;;;;;13.30;73.10;;;;;;5007542;28;19933;-70
2022/09/22 10:48:46;;;;;;;;;;;13.40;73.00;;;;;;5012146;28;19980;-71
2022/09/22 10:51:16;;;;;;;;;;;13.50;72.50;;;;;;5002137;28;19929;-71
2022/09/22 10:53:51;;;;;;;;;;;13.50;72.60;;;;;;5001820;28;21607;-71
2022/09/22 10:56:22;;;;;;;;;;;13.60;72.40;;;;;;4997873;28;20397;-71
2022/09/22 10:58:59;;;;;;;;;;;13.70;72.30;;;;;;5004059;28;19964;-70
2022/09/22 11:01:32;;;;;;;;;;;13.70;72.30;;;;;;5007181;28;19941;-70
2022/09/22 11:04:28;;;;;;;;;;;13.90;72.20;;;;;;5002620;28;19934;-71
2022/09/22 11:12:40;;;;;;;;;;;14.10;70.90;;;;;;4995290;28;19936;-68
2022/09/22 11:15:13;;;;;;;;;;;14.20;70.70;;;;;;5006808;28;19930;-68
2022/09/22 11:17:52;;;;;;;;;;;14.20;70.00;;;;;;5007724;28;20025;-68
2022/09/22 11:20:39;;;;;;;;;;;14.30;70.30;;;;;;5001940;28;19997;-67
2022/09/22 11:23:39;;;;;;;;;;;14.40;70.40;;;;;;4999079;28;19988;-67
2022/09/22 11:26:13;;;;;;;;;;;14.50;69.50;;;;;;4964894;28;19981;-68
2022/09/22 11:28:50;;;;;;;;;;;14.50;69.90;;;;;;4966092;28;19930;-68
2022/09/22 11:31:20;;;;;;;;;;;14.60;68.20;;;;;;4984878;28;20277;-68
2022/09/22 11:34:02;;;;;;;;;;;14.70;68.90;;;;;;4998994;28;20423;-68
2022/09/22 11:36:38;;;;;;;;;;;14.70;68.80;;;;;;5008135;28;20560;-67
2022/09/22 11:39:13;;;;;;;;;;;14.80;68.00;;;;;;4993190;28;19930;-68
2022/09/22 11:41:42;;;;;;;;;;;14.90;67.80;;;;;;4992106;28;19995;-68
2022/09/22 11:44:24;;;;;;;;;;;15.00;68.10;;;;;;5001625;28;19936;-68
2022/09/22 11:46:57;;;;;;;;;;;15.00;67.60;;;;;;4997696;28;19933;-69
2022/09/22 11:49:28;;;;;;;;;;;15.10;67.60;;;;;;5001432;28;19932;-69
2022/09/22 11:52:04;;;;;;;;;;;15.10;67.50;;;;;;4997505;28;19937;-68
2022/09/22 11:54:46;;;;;;;;;;;15.20;67.20;;;;;;5005755;28;19937;-69
2022/09/22 11:57:16;;;;;;;;;;;15.30;65.90;;;;;;5002501;28;19930;-70
2022/09/22 11:59:45;;;;;;;;;;;15.40;66.20;;;;;;5001124;28;20402;-70
2022/09/22 12:02:16;;;;;;;;;;;15.40;66.40;;;;;;5006014;28;20064;-70
2022/09/22 12:04:46;;;;;;;;;;;15.50;65.50;;;;;;5002837;28;19984;-69
2022/09/22 12:07:15;;;;;;;;;;;15.60;65.60;;;;;;4998399;28;19984;-68
2022/09/22 12:09:45;;;;;;;;;;;15.60;65.70;;;;;;5005332;28;19944;-68
2022/09/22 12:12:15;;;;;;;;;;;15.80;65.30;;;;;;5002575;28;19976;-68
2022/09/22 12:14:44;;;;;;;;;;;15.90;64.30;;;;;;5002954;28;20596;-68
2022/09/22 12:17:13;;;;;;;;;;;15.90;64.10;;;;;;5000685;28;19983;-68
2022/09/22 12:19:47;;;;;;;;;;;16.00;64.70;;;;;;5000318;28;19980;-68
2022/09/22 12:22:16;;;;;;;;;;;16.10;63.80;;;;;;5005306;28;19933;-70
2022/09/22 12:24:45;;;;;;;;;;;16.10;64.20;;;;;;5003188;28;19959;-71
2022/09/22 12:27:17;;;;;;;;;;;16.40;60.90;;;;;;5001657;28;19940;-70
2022/09/22 12:29:45;;;;;;;;;;;16.60;59.30;;;;;;5002709;28;19934;-71
2022/09/22 12:32:21;;;;;;;;;;;16.90;59.50;;;;;;5008701;28;20008;-71
2022/09/22 12:34:47;;;;;;;;;;;17.10;59.30;;;;;;5003178;28;19990;-70
2022/09/22 12:37:19;;;;;;;;;;;17.30;59.30;;;;;;5005188;28;19930;-71
2022/09/22 12:39:48;;;;;;;;;;;17.40;59.10;;;;;;5000160;28;19930;-71
2022/09/22 12:42:18;;;;;;;;;;;17.60;58.70;;;;;;5002274;28;19937;-69
2022/09/22 12:44:50;;;;;;;;;;;17.70;58.30;;;;;;5001565;28;19929;-68
2022/09/22 12:47:19;;;;;;;;;;;17.80;58.10;;;;;;5003140;28;19933;-70
2022/09/22 12:49:50;;;;;;;;;;;17.90;58.20;;;;;;4997103;28;19934;-70
2022/09/22 12:52:41;;;;;;;;;;;18.00;57.80;;;;;;5001807;28;19984;-70
2022/09/22 12:55:16;;;;;;;;;;;18.10;57.80;;;;;;4944788;28;20013;-70
2022/09/22 12:57:46;;;;;;;;;;;18.20;57.40;;;;;;4999419;28;19933;-71
2022/09/22 13:00:19;;;;;;;;;;;18.30;56.90;;;;;;4998392;28;19933;-71
2022/09/22 13:02:48;;;;;;;;;;;18.30;56.70;;;;;;5003522;28;20609;-71
2022/09/22 13:05:33;;;;;;;;;;;18.40;56.70;;;;;;5001063;28;19937;-71
2022/09/22 13:08:00;;;;;;;;;;;18.50;57.00;;;;;;5001346;28;20212;-70
2022/09/22 13:10:50;;;;;;;;;;;18.60;56.90;;;;;;5000262;28;21144;-71
2022/09/22 13:13:23;;;;;;;;;;;18.60;57.00;;;;;;5002665;28;20407;-69
2022/09/22 13:15:58;;;;;;;;;;;18.70;57.10;;;;;;4998061;28;19933;-69
2022/09/22 13:18:32;;;;;;;;;;;18.70;57.20;;;;;;4999082;28;19940;-70
2022/09/22 13:20:59;;;;;;;;;;;18.70;56.80;;;;;;5000717;28;19929;-70
2022/09/22 13:23:26;;;;;;;;;;;18.80;57.30;;;;;;5003508;28;19986;-70
2022/09/22 13:25:53;;;;;;;;;;;18.80;57.30;;;;;;5001210;28;20353;-71
2022/09/22 13:28:20;;;;;;;;;;;18.90;57.30;;;;;;4993595;28;19937;-70
2022/09/22 13:30:47;;;;;;;;;;;18.90;57.10;;;;;;5005193;28;20556;-69
2022/09/22 13:33:22;;;;;;;;;;;18.90;56.90;;;;;;4998089;28;19930;-70
2022/09/22 13:35:52;;;;;;;;;;;19.00;57.00;;;;;;5012749;28;20334;-71
2022/09/22 13:38:18;;;;;;;;;;;19.00;57.00;;;;;;5009286;28;19933;-69
2022/09/22 13:40:47;;;;;;;;;;;19.00;56.30;;;;;;5001594;28;20412;-70
2022/09/22 13:43:20;;;;;;;;;;;19.10;55.40;;;;;;5007756;28;19991;-70
2022/09/22 13:45:47;;;;;;;;;;;19.20;56.20;;;;;;5003909;28;19929;-70
2022/09/22 13:48:15;;;;;;;;;;;19.20;56.80;;;;;;5001573;28;19929;-70
2022/09/22 13:50:47;;;;;;;;;;;19.20;56.90;;;;;;5001382;28;19929;-71
2022/09/22 13:53:15;;;;;;;;;;;19.30;56.40;;;;;;4997625;28;19934;-71
2022/09/22 13:55:42;;;;;;;;;;;19.30;56.40;;;;;;4996679;28;19929;-70
2022/09/22 13:58:12;;;;;;;;;;;19.30;56.10;;;;;;5003011;28;20008;-71
2022/09/22 14:00:41;;;;;;;;;;;19.40;55.70;;;;;;5008552;28;24055;-71
2022/09/22 14:03:16;;;;;;;;;;;19.40;55.80;;;;;;5006355;28;19930;-70
2022/09/22 14:05:44;;;;;;;;;;;19.50;56.10;;;;;;5001075;28;19984;-70
2022/09/22 14:08:13;;;;;;;;;;;19.50;55.40;;;;;;4995623;28;19933;-71
2022/09/22 14:10:40;;;;;;;;;;;19.50;55.40;;;;;;5003054;28;20295;-70
2022/09/22 14:13:22;;;;;;;;;;;19.60;55.60;;;;;;5003463;28;19937;-70
2022/09/22 14:15:48;;;;;;;;;;;19.70;56.20;;;;;;5003097;28;20386;-70
2022/09/22 14:18:17;;;;;;;;;;;19.70;56.40;;;;;;5004555;28;19988;-71
2022/09/22 14:20:45;;;;;;;;;;;19.70;56.20;;;;;;4997902;28;19984;-69
2022/09/22 14:23:17;;;;;;;;;;;19.80;56.40;;;;;;5004241;28;19929;-70
2022/09/22 14:25:43;;;;;;;;;;;19.80;56.60;;;;;;5000857;28;19930;-71
2022/09/22 14:28:16;;;;;;;;;;;19.80;56.90;;;;;;5007645;28;19929;-71
2022/09/22 14:30:42;;;;;;;;;;;19.90;57.30;;;;;;5003002;28;19982;-70
2022/09/22 14:33:14;;;;;;;;;;;19.90;57.40;;;;;;5004478;28;19937;-71
2022/09/22 14:35:41;;;;;;;;;;;19.90;56.90;;;;;;5002841;28;19929;-70
2022/09/22 14:38:09;;;;;;;;;;;20.00;56.90;;;;;;5008875;28;19925;-70
2022/09/22 14:40:38;;;;;;;;;;;20.00;56.80;;;;;;4998593;28;20671;-71
2022/09/22 14:43:07;;;;;;;;;;;20.10;56.90;;;;;;5004670;28;19933;-70
2022/09/22 14:45:35;;;;;;;;;;;20.10;56.50;;;;;;4999273;28;19933;-71